Time;durP1;ratioP1;P1;durP2;ratioP2;P2;SDS_P1;SDS_P2;PMS_P1;PMS_P2;Temp;Humidity;BMP_temperature;BMP_pressure;BME280_temperature;BME280_humidity;BME280_pressure;Samples;Min_cycle;Max_cycle;Signal;HPM_P1;HPM_P2
2024/02/08 00:00:30;;;;;;;22.08;9.10;;;4.10;99.90;;;;;;5032710;28;20053;-80
2024/02/08 00:02:56;;;;;;;25.45;9.02;;;4.10;99.90;;;;;;5031896;28;20025;-80
2024/02/08 00:05:22;;;;;;;22.58;8.98;;;4.10;99.90;;;;;;5032720;28;20112;-80
2024/02/08 00:07:48;;;;;;;20.83;9.05;;;4.10;99.90;;;;;;5031955;28;20494;-84
2024/02/08 00:10:13;;;;;;;21.02;8.30;;;4.10;99.90;;;;;;5032605;28;20048;-79
2024/02/08 00:12:41;;;;;;;23.23;8.65;;;4.20;99.90;;;;;;5031888;28;20049;-80
2024/02/08 00:15:09;;;;;;;20.08;8.68;;;4.20;99.90;;;;;;5032343;28;20027;-79
2024/02/08 00:17:35;;;;;;;22.52;8.52;;;4.10;99.90;;;;;;5031686;28;20025;-80
2024/02/08 00:20:01;;;;;;;23.67;8.98;;;4.10;99.90;;;;;;5032022;28;20021;-79
2024/02/08 00:22:27;;;;;;;20.98;8.73;;;4.10;99.90;;;;;;5031577;28;20189;-79
2024/02/08 00:24:55;;;;;;;22.25;9.15;;;4.10;99.90;;;;;;5032522;28;20454;-80
2024/02/08 00:27:21;;;;;;;22.17;8.07;;;4.10;99.90;;;;;;5034774;28;20029;-80
2024/02/08 00:29:47;;;;;;;23.45;8.50;;;4.10;99.90;;;;;;5018158;28;20026;-80
2024/02/08 00:32:12;;;;;;;23.30;8.27;;;4.10;99.90;;;;;;5032401;28;20048;-80
2024/02/08 00:34:41;;;;;;;22.73;8.65;;;4.10;99.90;;;;;;5031891;28;20521;-79
2024/02/08 00:37:07;;;;;;;23.10;8.45;;;4.10;99.90;;;;;;5031415;28;20032;-80
2024/02/08 00:39:42;;;;;;;18.40;8.35;;;4.10;99.90;;;;;;5031590;28;20025;-80
2024/02/08 00:42:11;;;;;;;21.17;8.30;;;4.10;99.90;;;;;;5031360;28;20436;-79
2024/02/08 00:44:37;;;;;;;25.13;8.30;;;4.00;99.90;;;;;;5014277;28;20025;-80
2024/02/08 00:47:05;;;;;;;17.65;7.90;;;4.10;99.90;;;;;;5031800;28;20025;-80
2024/02/08 00:49:31;;;;;;;23.58;8.40;;;4.10;99.90;;;;;;5013777;28;20130;-80
2024/02/08 00:52:00;;;;;;;23.48;8.57;;;4.10;99.90;;;;;;5031225;28;20455;-79
2024/02/08 00:54:26;;;;;;;22.60;8.25;;;4.10;99.90;;;;;;5032211;28;20017;-79
2024/02/08 00:56:53;;;;;;;21.05;8.10;;;4.10;99.90;;;;;;5033154;28;20033;-80
2024/02/08 00:59:22;;;;;;;20.80;7.60;;;4.10;99.90;;;;;;5031625;28;20097;-80
2024/02/08 01:01:50;;;;;;;21.90;8.45;;;4.10;99.90;;;;;;5031330;28;20120;-80
2024/02/08 01:04:21;;;;;;;17.15;7.15;;;4.10;99.90;;;;;;5031545;28;20048;-80
2024/02/08 01:06:47;;;;;;;17.33;7.73;;;4.10;99.90;;;;;;5013317;28;20040;-79
2024/02/08 01:09:12;;;;;;;17.17;6.82;;;4.10;99.90;;;;;;5031127;28;20032;-78
2024/02/08 01:11:38;;;;;;;24.17;7.85;;;4.10;99.90;;;;;;5030855;28;20037;-80
2024/02/08 01:14:04;;;;;;;18.48;7.35;;;4.10;99.90;;;;;;5030757;28;20036;-79
2024/02/08 01:16:33;;;;;;;18.42;7.13;;;4.10;99.90;;;;;;5012826;28;20525;-80
2024/02/08 01:19:02;;;;;;;25.33;7.65;;;4.10;99.90;;;;;;5030055;28;20064;-80
2024/02/08 01:21:31;;;;;;;15.43;6.93;;;4.00;99.90;;;;;;5030977;28;20033;-80
2024/02/08 01:23:56;;;;;;;20.00;7.10;;;4.00;99.90;;;;;;5013477;28;20570;-80
2024/02/08 01:26:22;;;;;;;17.73;7.55;;;4.00;99.90;;;;;;5030366;28;20033;-80
2024/02/08 01:28:48;;;;;;;20.55;6.60;;;4.00;99.90;;;;;;5030667;28;20163;-80
2024/02/08 01:31:14;;;;;;;17.58;6.72;;;4.00;99.90;;;;;;5012876;28;20277;-80
2024/02/08 01:33:39;;;;;;;18.52;7.65;;;3.90;99.90;;;;;;5012704;28;20030;-79
2024/02/08 01:36:05;;;;;;;26.08;8.48;;;3.80;99.90;;;;;;5012852;28;20577;-79
2024/02/08 01:38:31;;;;;;;17.50;8.23;;;3.80;99.90;;;;;;5030560;28;20041;-80
2024/02/08 01:40:57;;;;;;;18.95;7.65;;;3.70;99.90;;;;;;5031024;28;20022;-80
2024/02/08 01:43:22;;;;;;;19.88;8.02;;;3.80;99.90;;;;;;5030748;28;20021;-79
2024/02/08 01:45:50;;;;;;;17.13;7.57;;;3.80;99.90;;;;;;5033810;28;20029;-79
2024/02/08 01:48:17;;;;;;;25.77;8.13;;;3.80;99.90;;;;;;5034355;28;20514;-80
2024/02/08 01:50:51;;;;;;;19.00;8.32;;;3.80;99.90;;;;;;5034235;28;20068;-79
2024/02/08 01:53:27;;;;;;;27.27;8.45;;;3.90;99.90;;;;;;5030684;28;20025;-80
2024/02/08 01:55:54;;;;;;;23.50;7.55;;;3.90;99.90;;;;;;5030944;28;20041;-79
2024/02/08 01:58:24;;;;;;;19.80;8.15;;;3.90;99.90;;;;;;5030309;28;20017;-79
2024/02/08 02:00:50;;;;;;;20.35;7.90;;;3.90;99.90;;;;;;5030498;28;20025;-79
2024/02/08 02:03:19;;;;;;;17.42;7.82;;;3.90;99.90;;;;;;5030578;28;20105;-79
2024/02/08 02:05:47;;;;;;;21.77;8.13;;;3.90;99.90;;;;;;5030595;28;20028;-80
2024/02/08 02:08:21;;;;;;;24.75;7.97;;;4.00;99.90;;;;;;5030520;28;20502;-79
2024/02/08 02:11:05;;;;;;;20.17;7.47;;;4.00;99.90;;;;;;5030853;28;20116;-80
2024/02/08 02:13:34;;;;;;;21.52;7.20;;;3.90;99.90;;;;;;5012725;28;20068;-80
2024/02/08 02:16:00;;;;;;;21.67;7.75;;;3.90;99.90;;;;;;5031862;28;20108;-80
2024/02/08 02:18:26;;;;;;;18.65;7.40;;;3.90;99.90;;;;;;5032644;28;20071;-79
2024/02/08 02:20:55;;;;;;;17.00;6.85;;;3.90;99.90;;;;;;5012616;28;20022;-80
2024/02/08 02:23:20;;;;;;;22.88;7.43;;;3.90;99.90;;;;;;5030549;28;20049;-79
2024/02/08 02:25:53;;;;;;;23.58;8.18;;;3.90;99.90;;;;;;5031154;28;20109;-80
2024/02/08 02:28:22;;;;;;;20.83;7.82;;;3.90;99.90;;;;;;5015957;28;20082;-81
2024/02/08 02:30:50;;;;;;;22.58;7.93;;;3.90;99.90;;;;;;5034098;28;20370;-79
2024/02/08 02:33:16;;;;;;;22.25;7.38;;;3.90;99.90;;;;;;5034057;28;20026;-79
2024/02/08 02:35:49;;;;;;;20.50;7.65;;;3.90;99.90;;;;;;5016713;28;20030;-80
2024/02/08 02:38:24;;;;;;;20.58;7.70;;;3.90;99.90;;;;;;5033480;28;20104;-79
2024/02/08 02:40:49;;;;;;;22.73;7.63;;;4.00;99.90;;;;;;5034110;28;20029;-80
2024/02/08 02:43:18;;;;;;;17.38;7.00;;;4.00;99.90;;;;;;5033848;28;20017;-80
2024/02/08 02:45:44;;;;;;;20.48;8.00;;;4.00;99.90;;;;;;5033920;28;20037;-80
2024/02/08 02:48:14;;;;;;;21.00;7.32;;;4.00;99.90;;;;;;5033575;28;20120;-79
2024/02/08 02:50:41;;;;;;;20.02;7.50;;;4.00;99.90;;;;;;5034158;28;20604;-79
2024/02/08 02:53:08;;;;;;;25.05;7.93;;;4.00;99.90;;;;;;5033509;28;20437;-79
2024/02/08 02:55:35;;;;;;;19.40;7.50;;;4.00;99.90;;;;;;5015662;28;20036;-80
2024/02/08 02:58:00;;;;;;;20.05;7.70;;;4.00;99.90;;;;;;5033736;28;20018;-79
2024/02/08 03:00:33;;;;;;;19.60;7.93;;;4.10;99.90;;;;;;5033745;28;20048;-79
2024/02/08 03:03:06;;;;;;;17.27;6.85;;;4.10;99.90;;;;;;5033407;28;20014;-77
2024/02/08 03:05:49;;;;;;;18.60;7.35;;;4.10;99.90;;;;;;5033351;28;20052;-79
2024/02/08 03:08:16;;;;;;;18.25;7.13;;;4.00;99.90;;;;;;5033988;28;20059;-78
2024/02/08 03:10:42;;;;;;;17.50;7.43;;;4.00;99.90;;;;;;5036021;28;20021;-78
2024/02/08 03:13:10;;;;;;;25.27;9.10;;;4.00;99.90;;;;;;5032921;28;20085;-79
2024/02/08 03:15:36;;;;;;;21.02;7.50;;;3.90;99.90;;;;;;5033287;28;20018;-79
2024/02/08 03:18:03;;;;;;;22.08;8.15;;;3.90;99.90;;;;;;5032849;28;20029;-79
2024/02/08 03:20:32;;;;;;;16.20;7.07;;;4.00;99.90;;;;;;5033459;28;20044;-79
2024/02/08 03:22:58;;;;;;;21.75;7.95;;;4.00;99.90;;;;;;5014689;28;20033;-80
2024/02/08 03:25:24;;;;;;;22.80;7.95;;;4.00;99.90;;;;;;5033118;28;20061;-79
2024/02/08 03:27:54;;;;;;;22.15;7.70;;;4.00;99.90;;;;;;5032343;28;20017;-78
2024/02/08 03:30:43;;;;;;;16.83;6.93;;;4.00;99.90;;;;;;5032992;28;20026;-79
2024/02/08 03:33:15;;;;;;;18.38;7.18;;;4.00;99.90;;;;;;5031752;28;20021;-79
2024/02/08 03:35:46;;;;;;;23.42;8.02;;;4.00;99.90;;;;;;5015112;28;20513;-79
2024/02/08 03:38:14;;;;;;;21.08;7.65;;;4.00;99.90;;;;;;5031528;28;20013;-79
2024/02/08 03:40:40;;;;;;;14.50;6.80;;;4.00;99.90;;;;;;5014865;28;20108;-79
2024/02/08 03:43:06;;;;;;;16.13;6.35;;;4.00;99.90;;;;;;5032295;28;20101;-79
2024/02/08 03:45:39;;;;;;;19.13;7.35;;;4.00;99.90;;;;;;5032547;28;20031;-79
2024/02/08 03:48:06;;;;;;;22.75;7.55;;;4.00;99.90;;;;;;5014261;28;20100;-79
2024/02/08 03:50:33;;;;;;;15.15;7.20;;;4.00;99.90;;;;;;5014945;28;20021;-80
2024/02/08 03:53:12;;;;;;;15.70;6.90;;;4.00;99.90;;;;;;5032315;28;20017;-79
2024/02/08 03:55:43;;;;;;;20.75;7.38;;;4.10;99.90;;;;;;5014478;28;20402;-79
2024/02/08 03:58:09;;;;;;;16.75;7.03;;;4.10;99.90;;;;;;5014585;28;20114;-79
2024/02/08 04:00:42;;;;;;;18.45;6.95;;;4.10;99.90;;;;;;5032311;28;20024;-79
2024/02/08 04:03:13;;;;;;;18.35;7.40;;;4.00;99.90;;;;;;5032300;28;20026;-79
2024/02/08 04:54:47;;;;;;;13.10;4.80;;;4.10;99.90;;;;;;5031693;28;20679;-79
2024/02/08 04:57:12;;;;;;;14.65;4.55;;;4.10;99.90;;;;;;5031176;28;20026;-79
2024/02/08 04:59:44;;;;;;;21.10;5.38;;;4.00;99.90;;;;;;5013359;28;20067;-79
2024/02/08 05:02:11;;;;;;;16.48;4.75;;;4.10;99.90;;;;;;5013083;28;20058;-80
2024/02/08 05:04:37;;;;;;;15.93;4.90;;;4.10;99.90;;;;;;5031770;28;20064;-79
2024/02/08 05:07:06;;;;;;;17.58;5.72;;;4.10;99.90;;;;;;5031246;28;20057;-79
2024/02/08 05:09:33;;;;;;;16.05;5.80;;;4.10;99.90;;;;;;5013679;28;20032;-79
2024/02/08 05:12:05;;;;;;;17.50;5.57;;;4.10;99.90;;;;;;5030803;28;20034;-79
2024/02/08 05:14:35;;;;;;;17.52;5.25;;;4.10;99.90;;;;;;5000128;28;20144;-79
2024/02/08 05:17:01;;;;;;;16.98;5.97;;;4.10;99.90;;;;;;5030876;28;20652;-79
2024/02/08 05:19:27;;;;;;;19.20;6.15;;;4.10;99.90;;;;;;5013509;28;20633;-77
2024/02/08 05:22:13;;;;;;;15.40;6.45;;;4.10;99.90;;;;;;5013873;28;20067;-78
2024/02/08 05:24:39;;;;;;;20.08;6.88;;;4.10;99.90;;;;;;5032991;28;20116;-78
2024/02/08 05:27:04;;;;;;;22.08;7.10;;;4.10;99.90;;;;;;5030799;28;20061;-78
2024/02/08 05:29:32;;;;;;;21.65;6.93;;;4.00;99.90;;;;;;5030849;28;20033;-79
2024/02/08 05:31:58;;;;;;;18.55;6.60;;;4.10;99.90;;;;;;5030714;28;20041;-79
2024/02/08 05:34:25;;;;;;;18.73;7.75;;;4.00;99.90;;;;;;5012671;28;20049;-79
2024/02/08 05:36:52;;;;;;;18.25;7.45;;;4.00;99.90;;;;;;5030800;28;20029;-79
2024/02/08 05:39:24;;;;;;;18.90;7.50;;;4.00;99.90;;;;;;5013109;28;20029;-79
2024/02/08 05:41:54;;;;;;;20.90;7.63;;;4.00;99.90;;;;;;5030856;28;20022;-79
2024/02/08 05:44:20;;;;;;;18.08;7.88;;;4.00;99.90;;;;;;5013026;28;20018;-79
2024/02/08 05:46:47;;;;;;;29.73;8.77;;;4.00;99.90;;;;;;5031015;28;20028;-78
2024/02/08 05:49:14;;;;;;;12.43;5.72;;;4.00;99.90;;;;;;5035237;28;20426;-79
2024/02/08 05:51:51;;;;;;;25.50;7.60;;;4.00;99.90;;;;;;5034203;28;20017;-79
2024/02/08 05:54:31;;;;;;;19.08;7.60;;;4.00;99.90;;;;;;5031108;28;20030;-79
2024/02/08 05:57:06;;;;;;;27.08;8.00;;;4.00;99.90;;;;;;5030539;28;20025;-79
2024/02/08 05:59:32;;;;;;;18.27;7.57;;;4.00;99.90;;;;;;5030673;28;20101;-79
2024/02/08 06:01:58;;;;;;;20.85;7.70;;;4.00;99.90;;;;;;5033470;28;20104;-79
2024/02/08 06:04:25;;;;;;;24.27;8.85;;;4.00;99.90;;;;;;5035028;28;20025;-79
2024/02/08 06:07:05;;;;;;;23.35;8.27;;;4.00;99.90;;;;;;5034648;28;20136;-79
2024/02/08 06:12:23;;;;;;;21.70;7.88;;;4.00;99.90;;;;;;5034404;28;20372;-79
2024/02/08 06:14:57;;;;;;;18.67;8.32;;;4.00;99.90;;;;;;5016613;28;20026;-78
2024/02/08 06:17:32;;;;;;;24.52;8.27;;;4.00;99.90;;;;;;5036410;28;20109;-79
2024/02/08 06:20:08;;;;;;;18.42;7.47;;;4.00;99.90;;;;;;5017005;28;20064;-78
2024/02/08 06:22:39;;;;;;;19.17;7.43;;;4.00;99.90;;;;;;5015978;28;20056;-80
2024/02/08 06:25:09;;;;;;;17.15;7.28;;;4.00;99.90;;;;;;5034327;28;20018;-77
2024/02/08 06:27:41;;;;;;;18.02;8.10;;;4.00;99.90;;;;;;5030544;28;20455;-79
2024/02/08 06:30:08;;;;;;;20.35;7.25;;;4.00;99.90;;;;;;5032670;28;20017;-79
2024/02/08 06:32:46;;;;;;;20.38;8.00;;;4.00;99.90;;;;;;5015391;28;20022;-79
2024/02/08 06:35:19;;;;;;;23.90;7.70;;;4.00;99.90;;;;;;5034162;28;20013;-78
2024/02/08 06:37:46;;;;;;;16.52;7.55;;;4.00;99.90;;;;;;5015674;28;20036;-78
2024/02/08 06:40:22;;;;;;;19.73;7.72;;;4.00;99.90;;;;;;5034292;28;20021;-79
2024/02/08 07:37:59;;;;;;;19.52;9.68;;;4.00;99.90;;;;;;5032604;28;20040;-79
2024/02/08 07:40:26;;;;;;;23.25;10.07;;;4.10;99.90;;;;;;5026915;28;20017;-79
2024/02/08 07:45:54;;;;;;;18.75;8.93;;;4.10;99.90;;;;;;5026926;28;20025;-79
2024/02/08 07:48:42;;;;;;;21.50;8.60;;;4.10;99.90;;;;;;5023801;28;20044;-79
2024/02/08 07:51:09;;;;;;;18.25;8.40;;;4.10;99.90;;;;;;5009111;28;20025;-79
2024/02/08 07:53:50;;;;;;;26.08;8.55;;;4.00;99.90;;;;;;5029466;28;20112;-78
2024/02/08 07:59:04;;;;;;;20.95;8.13;;;4.00;99.90;;;;;;5027887;28;20187;-79
2024/02/08 08:01:43;;;;;;;30.73;8.25;;;4.10;99.90;;;;;;5022118;28;20582;-79
2024/02/08 08:04:09;;;;;;;25.08;9.23;;;4.10;99.90;;;;;;5030261;28;20021;-79
2024/02/08 08:06:47;;;;;;;25.10;9.20;;;4.10;99.90;;;;;;5013480;28;20609;-80
2024/02/08 08:09:21;;;;;;;26.55;9.20;;;4.10;99.90;;;;;;5030421;28;20030;-79
2024/02/08 08:11:57;;;;;;;19.58;7.35;;;4.10;99.90;;;;;;5030465;28;20060;-79
2024/02/08 08:19:45;;;;;;;18.27;7.93;;;4.10;99.90;;;;;;5030161;28;20037;-79
2024/02/08 08:25:00;;;;;;;17.40;7.55;;;4.20;99.90;;;;;;5018161;28;20029;-79
2024/02/08 08:27:26;;;;;;;19.42;7.40;;;4.20;99.90;;;;;;5035064;28;20030;-79
2024/02/08 08:29:58;;;;;;;22.50;8.02;;;4.20;99.90;;;;;;5026687;28;20026;-79
2024/02/08 08:38:28;;;;;;;22.20;8.90;;;4.30;99.90;;;;;;5030671;28;20564;-77
2024/02/08 08:40:38;;;;;;;18.00;6.90;;;4.30;99.90;;;;;;5031292;28;20090;-78
2024/02/08 08:43:19;;;;;;;20.52;7.68;;;4.30;99.90;;;;;;5013298;28;20135;-77
2024/02/08 08:45:53;;;;;;;18.23;7.07;;;4.30;99.90;;;;;;5021172;28;20026;-77
2024/02/08 08:48:24;;;;;;;18.02;6.70;;;4.30;99.90;;;;;;5032091;28;20076;-78
2024/02/08 08:50:56;;;;;;;21.08;7.32;;;4.30;99.90;;;;;;5005159;28;20025;-78
2024/02/08 08:53:27;;;;;;;17.88;7.68;;;4.30;99.90;;;;;;5013129;28;20013;-77
2024/02/08 08:55:57;;;;;;;19.40;6.97;;;4.30;99.90;;;;;;5031209;28;20061;-77
2024/02/08 08:58:39;;;;;;;19.48;6.35;;;4.40;99.90;;;;;;5030737;28;20021;-77
2024/02/08 09:01:15;;;;;;;16.63;6.85;;;4.40;99.90;;;;;;5023829;28;20052;-77
2024/02/08 09:03:43;;;;;;;17.15;6.32;;;4.40;99.90;;;;;;5026273;28;20089;-77
2024/02/08 09:06:12;;;;;;;16.88;6.70;;;4.40;99.90;;;;;;5030931;28;20031;-77
2024/02/08 09:08:55;;;;;;;24.85;7.65;;;4.40;99.90;;;;;;5030649;28;20087;-77
2024/02/08 09:11:24;;;;;;;21.15;7.18;;;4.50;99.90;;;;;;5028889;28;20033;-78
2024/02/08 09:13:52;;;;;;;23.38;7.80;;;4.50;99.90;;;;;;5030909;28;20037;-78
2024/02/08 09:21:32;;;;;;;26.95;7.47;;;4.50;99.90;;;;;;5020197;28;20036;-78
2024/02/08 09:24:03;;;;;;;25.80;7.72;;;4.50;99.90;;;;;;5030267;28;20018;-77
2024/02/08 09:26:46;;;;;;;;;;;4.60;99.90;;;;;;5018291;28;20021;-78
2024/02/08 09:29:12;;;;;;;20.35;6.97;;;4.60;99.90;;;;;;5030843;28;19951;-77
2024/02/08 09:31:46;;;;;;;26.50;7.85;;;4.60;99.90;;;;;;5030827;28;20494;-78
2024/02/08 09:34:16;;;;;;;20.55;7.57;;;4.60;99.90;;;;;;5030946;28;20029;-77
2024/02/08 09:36:48;;;;;;;22.55;7.53;;;4.60;99.90;;;;;;5037563;28;20033;-78
2024/02/08 09:39:17;;;;;;;20.92;7.53;;;4.60;99.90;;;;;;5020067;28;20021;-77
2024/02/08 09:41:47;;;;;;;20.00;7.18;;;4.60;99.90;;;;;;5021063;28;20099;-77
2024/02/08 09:44:14;;;;;;;18.60;7.03;;;4.70;99.90;;;;;;5034581;28;20022;-77
2024/02/08 09:49:21;;;;;;;18.70;6.97;;;4.70;99.90;;;;;;5034134;28;20057;-79
2024/02/08 09:51:55;;;;;;;16.85;7.22;;;4.70;99.90;;;;;;5034989;28;20151;-77
2024/02/08 09:54:29;;;;;;;24.65;7.53;;;4.70;99.90;;;;;;5034602;28;20941;-83
2024/02/08 09:57:21;;;;;;;22.80;7.55;;;4.70;99.90;;;;;;5034755;28;20049;-83
2024/02/08 10:00:08;;;;;;;24.17;7.57;;;4.80;99.90;;;;;;5030870;28;20052;-83
2024/02/08 10:02:37;;;;;;;21.67;7.32;;;4.80;99.90;;;;;;5036866;28;20061;-83
2024/02/08 10:08:09;;;;;;;18.50;6.47;;;4.80;99.90;;;;;;5023421;28;20113;-84
2024/02/08 10:10:56;;;;;;;23.92;7.90;;;4.80;99.90;;;;;;5030560;28;20022;-91
2024/02/08 10:13:40;;;;;;;20.13;7.32;;;4.80;99.90;;;;;;5034856;28;20021;-84
2024/02/08 10:16:12;;;;;;;23.77;7.85;;;4.90;99.90;;;;;;5017422;28;20055;-93
2024/02/08 10:18:38;;;;;;;25.80;8.63;;;4.90;99.90;;;;;;5037474;28;20538;-87
2024/02/08 10:21:17;;;;;;;22.67;7.88;;;4.90;99.90;;;;;;5036914;28;20052;-86
2024/02/08 10:26:47;;;;;;;23.23;8.10;;;4.90;99.90;;;;;;5021806;28;20040;-82
2024/02/08 10:29:24;;;;;;;23.42;7.75;;;5.00;99.90;;;;;;5033680;28;20116;-84
2024/02/08 10:31:59;;;;;;;25.77;8.85;;;5.00;99.90;;;;;;5035041;28;20048;-86
2024/02/08 10:34:33;;;;;;;16.00;7.05;;;5.00;99.90;;;;;;5033990;28;20104;-86
2024/02/08 10:36:59;;;;;;;21.38;8.00;;;5.00;99.90;;;;;;5032055;28;20395;-87
2024/02/08 10:39:28;;;;;;;21.60;7.85;;;5.00;99.90;;;;;;5011834;28;20040;-84
2024/02/08 10:41:57;;;;;;;25.50;8.25;;;5.10;99.90;;;;;;5034390;28;20049;-87
2024/02/08 10:44:34;;;;;;;23.55;7.90;;;5.10;99.90;;;;;;5036655;28;20028;-91
2024/02/08 10:47:07;;;;;;;18.73;7.47;;;5.10;99.90;;;;;;5027468;28;20036;-88
2024/02/08 10:49:44;;;;;;;20.13;6.85;;;5.10;99.90;;;;;;5034466;28;20046;-85
2024/02/08 10:52:19;;;;;;;22.95;7.90;;;5.10;99.90;;;;;;5033564;28;20029;-82
2024/02/08 10:54:51;;;;;;;16.90;6.90;;;5.10;99.90;;;;;;5033486;28;20060;-79
2024/02/08 11:00:49;;;;;;;20.42;7.85;;;5.10;99.90;;;;;;5037341;28;20072;-87
2024/02/08 11:03:07;;;;;;;18.88;7.20;;;5.10;99.90;;;;;;5029073;28;20033;-87
2024/02/08 11:08:50;;;;;;;24.52;7.38;;;5.20;99.90;;;;;;5023898;28;20482;-90
2024/02/08 11:11:20;;;;;;;25.58;7.65;;;5.10;99.90;;;;;;5032608;28;20057;-89
2024/02/08 11:13:53;;;;;;;23.10;8.48;;;5.10;99.90;;;;;;5037989;28;20507;-91
2024/02/08 11:16:27;;;;;;;22.13;7.78;;;5.10;99.90;;;;;;5038604;28;20037;-91
2024/02/08 11:18:54;;;;;;;26.00;8.73;;;5.10;99.90;;;;;;5034455;28;20030;-91
2024/02/08 11:21:43;;;;;;;21.00;7.88;;;5.10;99.90;;;;;;5028703;28;20471;-89
2024/02/08 11:24:28;;;;;;;21.92;8.10;;;5.10;99.90;;;;;;5037365;28;20096;-89
2024/02/08 11:27:02;;;;;;;21.45;8.18;;;5.10;99.90;;;;;;5036632;28;20146;-89
2024/02/08 11:29:41;;;;;;;22.48;8.15;;;5.10;99.90;;;;;;5018454;28;20025;-89
2024/02/08 11:32:16;;;;;;;25.63;8.93;;;5.10;99.90;;;;;;5036159;28;20091;-88
2024/02/08 11:34:46;;;;;;;22.92;8.65;;;5.10;99.90;;;;;;5035776;28;20026;-89
2024/02/08 11:37:15;;;;;;;23.08;8.23;;;5.10;99.90;;;;;;5036761;28;20018;-89
2024/02/08 11:39:48;;;;;;;22.30;8.60;;;5.20;99.90;;;;;;5039497;28;20014;-90
2024/02/08 11:42:18;;;;;;;16.85;7.82;;;5.20;99.90;;;;;;5038681;28;20030;-86
2024/02/08 11:44:44;;;;;;;23.58;8.57;;;5.20;99.90;;;;;;5034327;28;20029;-87
2024/02/08 11:47:20;;;;;;;27.30;8.85;;;5.20;99.90;;;;;;5034822;28;20025;-86
2024/02/08 11:50:03;;;;;;;30.40;8.82;;;5.20;99.90;;;;;;5033895;28;20057;-86
2024/02/08 11:52:33;;;;;;;25.13;8.90;;;5.20;99.90;;;;;;5018317;28;20032;-88
2024/02/08 11:55:05;;;;;;;26.92;8.60;;;5.20;99.90;;;;;;5037967;28;20021;-86
2024/02/08 11:57:40;;;;;;;26.55;9.23;;;5.20;99.90;;;;;;5003986;28;20473;-87
2024/02/08 12:00:16;;;;;;;23.70;9.38;;;5.20;99.90;;;;;;5034657;28;20033;-88
2024/02/08 12:02:58;;;;;;;27.45;9.07;;;5.30;99.90;;;;;;5015674;28;20025;-84
2024/02/08 12:05:28;;;;;;;26.33;9.15;;;5.20;99.90;;;;;;5016385;28;20022;-84
2024/02/08 12:08:08;;;;;;;25.27;8.53;;;5.20;99.90;;;;;;5037619;28;20038;-89
2024/02/08 12:10:37;;;;;;;22.35;8.82;;;5.30;99.90;;;;;;5016600;28;20033;-82
2024/02/08 12:13:05;;;;;;;26.75;9.93;;;5.30;99.90;;;;;;5033531;28;20029;-88
2024/02/08 12:15:36;;;;;;;31.02;9.43;;;5.20;99.90;;;;;;5033614;28;20146;-85
2024/02/08 12:18:06;;;;;;;40.30;10.27;;;5.20;99.90;;;;;;5033055;28;20375;-85
2024/02/08 12:20:32;;;;;;;24.98;10.40;;;5.20;99.90;;;;;;5032181;28;20029;-85
2024/02/08 12:23:01;;;;;;;32.05;9.30;;;5.20;99.90;;;;;;5034409;28;20506;-88
2024/02/08 12:25:28;;;;;;;29.25;9.60;;;5.20;99.90;;;;;;5013677;28;20013;-84
2024/02/08 12:28:08;;;;;;;30.20;10.00;;;5.30;99.90;;;;;;5032929;28;20037;-85
2024/02/08 12:30:39;;;;;;;25.95;9.40;;;5.30;99.90;;;;;;5032871;28;20057;-85
2024/02/08 12:33:10;;;;;;;24.60;9.18;;;5.20;99.90;;;;;;5032752;28;20542;-85
2024/02/08 12:35:41;;;;;;;28.05;9.80;;;5.20;99.90;;;;;;5032217;28;20036;-84
2024/02/08 12:38:10;;;;;;;27.20;9.50;;;5.20;99.90;;;;;;5032713;28;20033;-87
2024/02/08 12:40:36;;;;;;;30.20;9.35;;;5.20;99.90;;;;;;5017415;28;20032;-87
2024/02/08 12:43:07;;;;;;;36.40;9.70;;;5.20;99.90;;;;;;5035380;28;20017;-89
2024/02/08 12:45:34;;;;;;;28.42;9.95;;;5.20;99.90;;;;;;5035032;28;20026;-89
2024/02/08 12:48:07;;;;;;;31.05;9.52;;;5.20;99.90;;;;;;5034353;28;20041;-86
2024/02/08 12:50:37;;;;;;;27.08;9.32;;;5.20;99.90;;;;;;5031174;28;20033;-86
2024/02/08 12:53:06;;;;;;;29.90;8.60;;;5.30;99.90;;;;;;5029034;28;20077;-86
2024/02/08 12:55:32;;;;;;;23.65;8.40;;;5.20;99.90;;;;;;5032529;28;20029;-85
2024/02/08 12:58:02;;;;;;;23.92;9.15;;;5.20;99.90;;;;;;5033024;28;20025;-86
2024/02/08 13:00:34;;;;;;;23.85;8.30;;;5.20;99.90;;;;;;5032863;28;20167;-85
2024/02/08 13:03:08;;;;;;;20.45;7.57;;;5.20;99.90;;;;;;5033516;28;20022;-87
2024/02/08 13:05:37;;;;;;;21.98;7.63;;;5.20;99.90;;;;;;5033465;28;20030;-86
2024/02/08 13:08:06;;;;;;;23.77;8.75;;;5.20;99.90;;;;;;5034394;28;20053;-87
2024/02/08 13:10:32;;;;;;;23.33;8.80;;;5.10;99.90;;;;;;5032188;28;20055;-87
2024/02/08 13:12:59;;;;;;;22.48;8.18;;;5.10;99.90;;;;;;5033286;28;20021;-86
2024/02/08 13:15:32;;;;;;;18.52;8.13;;;5.10;99.90;;;;;;5032577;28;20052;-86
2024/02/08 13:17:58;;;;;;;19.85;7.78;;;5.00;99.90;;;;;;5019216;28;20043;-85
2024/02/08 13:20:24;;;;;;;19.58;7.43;;;5.00;99.90;;;;;;5031972;28;20026;-85
2024/02/08 13:22:52;;;;;;;16.88;6.90;;;5.00;99.90;;;;;;5023518;28;20022;-85
2024/02/08 13:25:18;;;;;;;26.02;7.22;;;5.00;99.90;;;;;;5013256;28;20010;-84
2024/02/08 13:27:44;;;;;;;26.58;7.10;;;5.00;99.90;;;;;;5012683;28;20036;-84
2024/02/08 13:30:16;;;;;;;19.38;6.43;;;5.00;99.90;;;;;;5031078;28;20025;-83
2024/02/08 13:32:44;;;;;;;18.90;6.57;;;4.90;99.90;;;;;;5031685;28;20032;-85
2024/02/08 13:35:17;;;;;;;14.82;5.88;;;5.00;99.90;;;;;;5031378;28;20025;-84
2024/02/08 13:38:10;;;;;;;12.50;5.40;;;4.90;99.90;;;;;;5030750;28;20037;-84
2024/02/08 13:40:42;;;;;;;14.70;4.75;;;4.80;99.90;;;;;;5016581;28;20068;-85
2024/02/08 13:43:12;;;;;;;13.23;4.82;;;4.90;99.90;;;;;;5021047;28;20462;-84
2024/02/08 13:45:41;;;;;;;16.85;5.35;;;4.80;99.90;;;;;;5031541;28;20021;-84
2024/02/08 13:48:15;;;;;;;13.25;5.30;;;4.80;99.90;;;;;;5009453;28;20041;-83
2024/02/08 13:50:46;;;;;;;13.52;5.25;;;4.80;99.90;;;;;;5007932;28;20098;-83
2024/02/08 13:53:15;;;;;;;22.65;5.40;;;4.70;99.90;;;;;;5001204;28;20117;-84
2024/02/08 13:55:45;;;;;;;14.80;5.18;;;4.70;99.90;;;;;;5002879;28;20064;-84
2024/02/08 13:58:14;;;;;;;15.32;4.93;;;4.70;99.90;;;;;;5011350;28;20034;-85
2024/02/08 14:00:41;;;;;;;11.73;3.80;;;4.70;99.90;;;;;;5011323;28;20120;-85
2024/02/08 14:03:08;;;;;;;13.40;4.55;;;4.70;99.90;;;;;;5010624;28;20022;-86
2024/02/08 14:05:39;;;;;;;12.85;4.35;;;4.70;99.90;;;;;;5011074;28;20177;-85
2024/02/08 14:08:06;;;;;;;13.73;3.97;;;4.70;99.90;;;;;;5011262;28;20104;-84
2024/02/08 14:10:36;;;;;;;15.02;3.67;;;4.60;99.90;;;;;;5010280;28;20112;-84
2024/02/08 14:13:14;;;;;;;7.82;3.22;;;4.60;99.90;;;;;;5009968;28;20022;-83
2024/02/08 14:15:48;;;;;;;17.08;3.90;;;4.60;99.90;;;;;;5012207;28;20026;-87
2024/02/08 14:18:36;;;;;;;10.57;3.75;;;4.60;99.90;;;;;;5009824;28;20048;-85
2024/02/08 14:21:01;;;;;;;9.32;4.07;;;4.60;99.90;;;;;;5009098;28;20400;-83
2024/02/08 14:23:33;;;;;;;11.15;3.25;;;4.60;99.90;;;;;;5013045;28;20024;-83
2024/02/08 14:28:46;;;;;;;12.98;4.10;;;4.50;99.90;;;;;;5010667;28;20030;-81
2024/02/08 14:31:15;;;;;;;11.63;3.75;;;4.50;99.90;;;;;;5007012;28;20483;-83
2024/02/08 14:33:42;;;;;;;12.45;3.25;;;4.50;99.90;;;;;;5001228;28;20030;-84
2024/02/08 14:36:09;;;;;;;12.88;3.38;;;4.50;99.90;;;;;;5010853;28;20028;-83
2024/02/08 14:38:48;;;;;;;9.95;3.47;;;4.50;99.90;;;;;;5014425;28;20029;-83
2024/02/08 14:44:10;;;;;;;9.60;3.45;;;4.50;99.90;;;;;;5014297;28;20079;-82
2024/02/08 14:46:39;;;;;;;8.13;3.28;;;4.50;99.90;;;;;;5009583;28;20034;-82
2024/02/08 14:49:16;;;;;;;11.63;3.38;;;4.50;99.90;;;;;;5019002;28;20049;-85
2024/02/08 14:51:48;;;;;;;9.00;3.33;;;4.50;99.90;;;;;;5031896;28;20506;-83
2024/02/08 14:54:14;;;;;;;9.63;3.30;;;4.50;99.90;;;;;;5033722;28;20052;-83
2024/02/08 14:57:03;;;;;;;10.68;3.75;;;4.50;99.90;;;;;;5030589;28;20025;-83
2024/02/08 14:59:52;;;;;;;7.70;3.38;;;4.50;99.90;;;;;;5026322;28;20033;-83
2024/02/08 15:02:29;;;;;;;10.38;3.80;;;4.50;99.90;;;;;;5033418;28;20037;-84
2024/02/08 15:05:00;;;;;;;10.77;3.75;;;4.50;99.90;;;;;;5012317;28;20023;-82
2024/02/08 15:07:47;;;;;;;6.65;3.40;;;4.40;99.90;;;;;;5033469;28;20029;-82
2024/02/08 15:10:15;;;;;;;12.05;4.20;;;4.40;99.90;;;;;;5033479;28;20092;-85
2024/02/08 15:13:11;;;;;;;11.23;4.05;;;4.40;99.90;;;;;;5032936;28;20471;-83
2024/02/08 15:15:40;;;;;;;7.63;4.05;;;4.40;99.90;;;;;;5028263;28;20513;-85
2024/02/08 15:18:11;;;;;;;10.75;4.18;;;4.40;99.90;;;;;;5034360;28;20043;-83
2024/02/08 15:20:43;;;;;;;8.07;4.00;;;4.30;99.90;;;;;;5033590;28;20093;-83
2024/02/08 15:23:10;;;;;;;11.10;4.20;;;4.30;99.90;;;;;;5016453;28;20018;-83
2024/02/08 15:25:47;;;;;;;9.27;3.33;;;4.30;99.90;;;;;;5033252;28;20432;-84
2024/02/08 15:28:26;;;;;;;7.57;3.35;;;4.30;99.90;;;;;;5026414;28;20036;-83
2024/02/08 15:33:57;;;;;;;11.30;3.40;;;4.30;99.90;;;;;;5032397;28;20558;-84
2024/02/08 15:36:32;;;;;;;7.45;3.20;;;4.30;99.90;;;;;;5034206;28;20439;-87
2024/02/08 15:39:25;;;;;;;9.23;3.40;;;4.20;99.90;;;;;;5033505;28;20081;-86
2024/02/08 15:41:55;;;;;;;7.03;3.58;;;4.20;99.90;;;;;;5028223;28;20507;-85